Hammondsville, Vermont
Current Conditions -  °F | °C
As of 5:54 PM on Tuesday 25 Nov 2014 (Local Time) from KVSF Reporting Station
Clear Clear  
Wind Chill: 39°   Ceiling: Unl
Heat Index: 39°   Visibility: 10mi
Dew Point: 27°   Wind: 3mph
Humidity: 62%   Direction: 290°WNW
Pressure: 29.98"   Gusts: NA
Location:  43.4984°N, 72.5943°W
Report Text: KVSF 252254Z AUTO 29003KT 10SM CLR 04/M03 A2998 RMK AO2 SLP155 T00391028
Loading
Personal Weather Stations






























Interactive Weather Map New forecast layout! Learn more

10-Day Weather Forecast

Advertisements
Track Severe Weather on mobile